Time;durP1;ratioP1;P1;durP2;ratioP2;P2;SDS_P1;SDS_P2;PMS_P1;PMS_P2;Temp;Humidity;BMP_temperature;BMP_pressure;BME280_temperature;BME280_humidity;BME280_pressure;Samples;Min_cycle;Max_cycle;Signal;HPM_P1;HPM_P2
2023/10/26 00:01:59;;;;;;;44.13;26.15;;;10.90;99.90;;;;;;4984281;28;89726;-75
2023/10/26 00:04:25;;;;;;;42.47;23.75;;;10.90;99.90;;;;;;4991977;28;86811;-78
2023/10/26 00:06:50;;;;;;;45.63;26.17;;;10.90;99.90;;;;;;4985176;28;86504;-75
2023/10/26 00:09:18;;;;;;;38.47;23.33;;;10.90;99.90;;;;;;4989621;28;87506;-73
2023/10/26 00:11:51;;;;;;;38.40;24.98;;;10.90;99.90;;;;;;4978489;28;89449;-73
2023/10/26 00:14:17;;;;;;;40.40;24.50;;;10.80;99.90;;;;;;4991286;28;86862;-77
2023/10/26 00:16:42;;;;;;;41.83;25.73;;;10.80;99.90;;;;;;4994087;28;86957;-75
2023/10/26 00:19:08;;;;;;;40.92;23.65;;;10.80;99.90;;;;;;4992368;28;87123;-73
2023/10/26 00:21:36;;;;;;;35.13;23.45;;;10.70;99.90;;;;;;4983345;28;89044;-74
2023/10/26 00:24:02;;;;;;;44.67;24.55;;;10.70;99.90;;;;;;4982101;28;87158;-79
2023/10/26 00:26:27;;;;;;;40.75;23.63;;;10.70;99.90;;;;;;4992318;28;86328;-77
2023/10/26 00:28:53;;;;;;;36.72;23.67;;;10.70;99.90;;;;;;4984561;28;89350;-74
2023/10/26 00:31:19;;;;;;;40.72;23.02;;;10.70;99.90;;;;;;4983485;28;89813;-73
2023/10/26 00:33:44;;;;;;;42.47;23.35;;;10.70;99.90;;;;;;4991359;28;92529;-73
2023/10/26 00:36:17;;;;;;;35.28;22.75;;;10.70;99.90;;;;;;4992374;28;86768;-75
2023/10/26 00:38:43;;;;;;;35.63;23.00;;;10.70;99.90;;;;;;4989687;28;87376;-76
2023/10/26 00:41:08;;;;;;;35.65;22.67;;;10.70;99.90;;;;;;4992057;28;86596;-75
2023/10/26 00:43:34;;;;;;;36.38;22.98;;;10.70;99.90;;;;;;4990937;28;86297;-73
2023/10/26 00:46:03;;;;;;;38.80;22.27;;;10.70;99.90;;;;;;4989183;28;86734;-74
2023/10/26 00:48:29;;;;;;;35.08;23.17;;;10.70;99.90;;;;;;4989994;28;86809;-76
2023/10/26 00:50:54;;;;;;;40.28;22.88;;;10.70;99.90;;;;;;4982117;28;90579;-75
2023/10/26 00:53:22;;;;;;;38.47;23.13;;;10.70;99.90;;;;;;4993309;28;87059;-77
2023/10/26 00:55:50;;;;;;;41.22;23.77;;;10.70;99.90;;;;;;4981302;28;86372;-76
2023/10/26 00:58:17;;;;;;;40.03;23.48;;;10.70;99.90;;;;;;4981128;28;90446;-73
2023/10/26 01:00:47;;;;;;;44.20;24.45;;;10.70;99.90;;;;;;4981802;28;88718;-74
2023/10/26 01:03:30;;;;;;;39.75;23.48;;;10.70;99.90;;;;;;4992453;28;86672;-73
2023/10/26 01:05:57;;;;;;;37.10;22.95;;;10.70;99.90;;;;;;4994522;28;86667;-74
2023/10/26 01:08:23;;;;;;;39.80;24.00;;;10.60;99.90;;;;;;4993662;28;90075;-72
2023/10/26 01:10:49;;;;;;;38.22;23.15;;;10.70;99.90;;;;;;4957124;28;89838;-73
2023/10/26 01:13:16;;;;;;;38.28;22.45;;;10.70;99.90;;;;;;4988550;28;87010;-73
2023/10/26 01:15:42;;;;;;;41.28;24.83;;;10.70;99.90;;;;;;4992572;28;86023;-75
2023/10/26 01:18:07;;;;;;;42.70;24.30;;;10.70;99.90;;;;;;4990981;28;87022;-76
2023/10/26 01:20:33;;;;;;;41.28;25.52;;;10.70;99.90;;;;;;4990279;28;86660;-76
2023/10/26 01:22:59;;;;;;;41.85;24.50;;;10.60;99.90;;;;;;4976945;28;87497;-76
2023/10/26 01:25:24;;;;;;;43.97;25.95;;;10.60;99.90;;;;;;4979981;28;86376;-73
2023/10/26 01:27:50;;;;;;;49.60;25.55;;;10.60;99.90;;;;;;4972649;28;87291;-72
2023/10/26 01:30:16;;;;;;;45.25;26.45;;;10.60;99.90;;;;;;4958374;28;89978;-76
2023/10/26 01:32:43;;;;;;;41.58;24.48;;;10.60;99.90;;;;;;4957723;28;87113;-76
2023/10/26 01:35:08;;;;;;;42.20;24.75;;;10.60;99.90;;;;;;4956032;28;86500;-74
2023/10/26 01:37:38;;;;;;;43.53;25.25;;;10.60;99.90;;;;;;5007308;28;85985;-76
2023/10/26 01:40:06;;;;;;;42.90;24.25;;;10.50;99.90;;;;;;5010160;28;87091;-77
2023/10/26 01:42:32;;;;;;;39.42;23.17;;;10.50;99.90;;;;;;5012772;28;86780;-77
2023/10/26 01:45:18;;;;;;;42.15;23.75;;;10.50;99.90;;;;;;5012661;28;86299;-77
2023/10/26 01:47:43;;;;;;;46.53;23.95;;;10.50;99.90;;;;;;4996125;28;90969;-73
2023/10/26 01:50:10;;;;;;;38.88;24.35;;;10.50;99.90;;;;;;4994731;28;89456;-73
2023/10/26 01:52:35;;;;;;;41.90;23.42;;;10.40;99.90;;;;;;4995388;28;88455;-74
2023/10/26 01:55:01;;;;;;;43.58;23.70;;;10.40;99.90;;;;;;4997428;28;87583;-73
2023/10/26 01:57:32;;;;;;;44.58;23.50;;;10.40;99.90;;;;;;4994739;28;90430;-77
2023/10/26 01:59:57;;;;;;;43.58;24.17;;;10.40;99.90;;;;;;4991341;28;90393;-75
2023/10/26 02:02:23;;;;;;;37.40;23.17;;;10.40;99.90;;;;;;4995479;28;87175;-77
2023/10/26 02:04:49;;;;;;;34.90;21.75;;;10.40;99.90;;;;;;4997878;28;87137;-76
2023/10/26 02:07:15;;;;;;;36.90;22.27;;;10.40;99.90;;;;;;5013799;28;87062;-75
2023/10/26 02:09:41;;;;;;;42.28;22.88;;;10.30;99.90;;;;;;5015114;28;87144;-74
2023/10/26 02:12:07;;;;;;;40.15;22.67;;;10.20;99.90;;;;;;4997130;28;88196;-76
2023/10/26 02:14:32;;;;;;;42.72;21.98;;;10.20;99.90;;;;;;4995440;28;88601;-76
2023/10/26 02:16:58;;;;;;;41.60;22.83;;;10.10;99.90;;;;;;5014003;28;86523;-73
2023/10/26 02:19:23;;;;;;;49.20;23.52;;;10.10;99.90;;;;;;5014086;28;86573;-73
2023/10/26 02:21:49;;;;;;;39.55;21.92;;;10.00;99.90;;;;;;4995540;28;87362;-77
2023/10/26 02:24:14;;;;;;;39.28;22.70;;;10.00;99.90;;;;;;4985353;28;86773;-74
2023/10/26 02:26:40;;;;;;;37.30;21.83;;;9.90;99.90;;;;;;5005117;28;87313;-74
2023/10/26 02:29:06;;;;;;;41.95;22.13;;;9.90;99.90;;;;;;4981977;28;89321;-72
2023/10/26 02:31:31;;;;;;;43.72;22.38;;;9.90;99.90;;;;;;4998155;28;87577;-78
2023/10/26 02:33:59;;;;;;;32.47;19.83;;;9.90;99.90;;;;;;5013281;28;86606;-73
2023/10/26 02:36:25;;;;;;;35.70;20.15;;;9.80;99.90;;;;;;5011141;28;87098;-74
2023/10/26 02:38:51;;;;;;;36.97;19.75;;;9.80;99.90;;;;;;4994778;28;88428;-78
2023/10/26 02:41:17;;;;;;;40.70;20.38;;;9.80;99.90;;;;;;5015163;28;86128;-74
2023/10/26 02:43:42;;;;;;;36.25;19.52;;;9.80;99.90;;;;;;5017641;28;86898;-76
2023/10/26 02:46:09;;;;;;;30.95;18.30;;;9.80;99.90;;;;;;5010947;28;87151;-75
2023/10/26 02:48:34;;;;;;;34.25;19.52;;;9.70;99.90;;;;;;4995181;28;94499;-75
2023/10/26 02:51:00;;;;;;;33.45;20.27;;;9.70;99.90;;;;;;4997058;28;87633;-73
2023/10/26 02:53:26;;;;;;;30.83;19.02;;;9.70;99.90;;;;;;4997922;28;86903;-75
2023/10/26 02:55:52;;;;;;;29.13;17.23;;;9.60;99.90;;;;;;5013765;28;87071;-73
2023/10/26 02:58:18;;;;;;;27.45;17.20;;;9.60;99.90;;;;;;4994291;28;89089;-75
2023/10/26 03:00:43;;;;;;;30.48;18.10;;;9.60;99.90;;;;;;4991587;28;91320;-78
2023/10/26 03:03:09;;;;;;;33.42;17.90;;;9.60;99.90;;;;;;4996155;28;87815;-74
2023/10/26 03:05:35;;;;;;;28.98;17.85;;;9.50;99.90;;;;;;5009164;28;88314;-75
2023/10/26 03:08:01;;;;;;;28.73;17.02;;;9.50;99.90;;;;;;4992443;28;91943;-72
2023/10/26 03:10:28;;;;;;;30.92;18.33;;;9.40;99.90;;;;;;4995187;28;92466;-74
2023/10/26 03:12:57;;;;;;;30.63;16.38;;;9.40;99.90;;;;;;4995156;28;88210;-77
2023/10/26 03:15:23;;;;;;;27.23;16.55;;;9.30;99.90;;;;;;4994762;28;89256;-74
2023/10/26 03:17:49;;;;;;;30.95;16.20;;;9.30;99.90;;;;;;4992097;28;91475;-78
2023/10/26 03:20:17;;;;;;;27.85;16.88;;;9.20;99.90;;;;;;4994681;28;91591;-74
2023/10/26 03:22:45;;;;;;;31.23;17.77;;;9.20;99.90;;;;;;4993770;28;88204;-74
2023/10/26 03:25:13;;;;;;;25.15;15.45;;;9.20;99.90;;;;;;4994563;28;88942;-75
2023/10/26 03:27:40;;;;;;;25.90;15.85;;;9.10;99.90;;;;;;5009865;28;88423;-73
2023/10/26 03:30:10;;;;;;;29.13;16.55;;;9.00;99.90;;;;;;4992512;28;91258;-73
2023/10/26 03:32:36;;;;;;;25.90;15.77;;;8.90;99.90;;;;;;4994273;28;89127;-76
2023/10/26 03:35:01;;;;;;;26.77;15.77;;;8.90;99.90;;;;;;4991724;28;90887;-72
2023/10/26 03:37:27;;;;;;;28.50;16.90;;;8.90;99.90;;;;;;5007421;28;88380;-77
2023/10/26 03:39:53;;;;;;;28.70;16.13;;;8.80;99.90;;;;;;5010387;28;88466;-77
2023/10/26 03:42:19;;;;;;;26.67;15.73;;;8.70;99.90;;;;;;4992139;28;87415;-75
2023/10/26 03:45:03;;;;;;;32.80;15.95;;;8.70;99.90;;;;;;4991737;28;90747;-77
2023/10/26 03:47:31;;;;;;;29.00;16.50;;;8.60;99.90;;;;;;4998493;28;92082;-75
2023/10/26 03:49:56;;;;;;;27.80;15.43;;;8.60;99.90;;;;;;4994777;28;96229;-72
2023/10/26 03:52:22;;;;;;;24.67;15.23;;;8.50;99.90;;;;;;5010619;28;87750;-76
2023/10/26 03:54:48;;;;;;;26.75;14.30;;;8.50;99.90;;;;;;5008051;28;87717;-78
2023/10/26 03:57:15;;;;;;;25.00;14.52;;;8.40;99.90;;;;;;5009450;28;89119;-77
2023/10/26 03:59:41;;;;;;;21.65;13.68;;;8.40;99.90;;;;;;4994186;28;92460;-74
2023/10/26 04:02:07;;;;;;;21.60;13.63;;;8.40;99.90;;;;;;5013497;28;87667;-72
2023/10/26 04:04:33;;;;;;;24.33;13.90;;;8.30;99.90;;;;;;5009570;28;87856;-77
2023/10/26 04:06:58;;;;;;;21.80;12.60;;;8.30;99.90;;;;;;5008166;28;87700;-74
2023/10/26 04:09:24;;;;;;;20.50;13.13;;;8.20;99.90;;;;;;5011091;28;88642;-75
2023/10/26 04:11:50;;;;;;;22.85;13.15;;;8.20;99.90;;;;;;5013156;28;87720;-74
2023/10/26 04:14:15;;;;;;;23.80;14.50;;;8.10;99.90;;;;;;4992703;28;89978;-73
2023/10/26 04:16:47;;;;;;;23.13;13.88;;;8.10;99.90;;;;;;4991046;28;90673;-73
2023/10/26 04:19:13;;;;;;;24.33;13.98;;;8.10;99.90;;;;;;5009521;28;91409;-76
2023/10/26 04:21:39;;;;;;;20.13;12.88;;;8.10;99.90;;;;;;5010705;28;89234;-76
2023/10/26 04:24:08;;;;;;;23.27;13.52;;;8.00;99.90;;;;;;4991662;28;90326;-76
2023/10/26 04:26:33;;;;;;;24.17;14.07;;;8.00;99.90;;;;;;4994220;28;90945;-73
2023/10/26 04:28:59;;;;;;;28.02;13.90;;;7.90;99.90;;;;;;5011980;28;87914;-76
2023/10/26 04:31:25;;;;;;;23.98;14.80;;;7.90;99.90;;;;;;4991057;28;87793;-75
2023/10/26 04:33:52;;;;;;;28.10;15.02;;;7.80;99.90;;;;;;5008476;28;87824;-76
2023/10/26 04:36:36;;;;;;;24.10;14.00;;;7.80;99.90;;;;;;5008689;28;88425;-73
2023/10/26 04:39:03;;;;;;;20.42;11.75;;;7.70;99.90;;;;;;4993298;28;91252;-72
2023/10/26 04:41:30;;;;;;;19.48;11.75;;;7.70;99.90;;;;;;5011712;28;87627;-76
2023/10/26 04:43:59;;;;;;;19.35;11.60;;;7.60;99.90;;;;;;4994408;28;95346;-73
2023/10/26 04:46:25;;;;;;;22.10;11.77;;;7.60;99.90;;;;;;4993946;28;92658;-74
2023/10/26 04:48:51;;;;;;;20.08;11.43;;;7.60;99.90;;;;;;4994827;28;92063;-72
2023/10/26 04:51:16;;;;;;;17.90;11.15;;;7.50;99.90;;;;;;4999377;28;87944;-72
2023/10/26 04:53:42;;;;;;;16.63;11.00;;;7.50;99.90;;;;;;4992352;28;89657;-72
2023/10/26 04:56:10;;;;;;;19.65;10.95;;;7.50;99.90;;;;;;4996427;28;91149;-77
2023/10/26 04:58:36;;;;;;;17.40;10.98;;;7.40;99.90;;;;;;5010575;28;88437;-76
2023/10/26 05:01:02;;;;;;;22.30;10.48;;;7.40;99.90;;;;;;4993124;28;87308;-76
2023/10/26 05:03:27;;;;;;;16.13;9.75;;;7.30;99.90;;;;;;4991661;28;90798;-74
2023/10/26 05:05:53;;;;;;;17.88;11.13;;;7.30;99.90;;;;;;5010503;28;88066;-72
2023/10/26 05:08:19;;;;;;;15.15;9.75;;;7.30;99.90;;;;;;5014038;28;87666;-73
2023/10/26 05:10:44;;;;;;;16.05;10.25;;;7.20;99.90;;;;;;4995603;28;89131;-78
2023/10/26 05:13:10;;;;;;;18.02;10.10;;;7.20;99.90;;;;;;5010022;28;87359;-75
2023/10/26 05:15:36;;;;;;;16.45;10.32;;;7.10;99.90;;;;;;5013375;28;88450;-74
2023/10/26 05:18:03;;;;;;;14.95;9.57;;;7.10;99.90;;;;;;5008197;28;88480;-73
2023/10/26 05:20:30;;;;;;;25.70;10.68;;;7.10;99.90;;;;;;5010485;28;87871;-72
2023/10/26 05:22:56;;;;;;;17.75;10.70;;;7.10;99.90;;;;;;4995711;28;95307;-74
2023/10/26 05:25:22;;;;;;;16.30;10.35;;;7.00;99.90;;;;;;4990857;28;91685;-72
2023/10/26 05:27:47;;;;;;;18.27;9.98;;;7.00;99.90;;;;;;4994547;28;91166;-74
2023/10/26 05:30:13;;;;;;;18.10;9.18;;;7.00;99.90;;;;;;4994398;28;87885;-73
2023/10/26 05:32:41;;;;;;;20.40;9.40;;;7.00;99.90;;;;;;5009054;28;89049;-74
2023/10/26 05:35:13;;;;;;;16.10;9.55;;;6.90;99.90;;;;;;4995564;28;92727;-77
2023/10/26 05:37:39;;;;;;;14.80;9.70;;;6.90;99.90;;;;;;4994789;28;92535;-72
2023/10/26 05:40:06;;;;;;;25.42;9.52;;;6.90;99.90;;;;;;5013025;28;87763;-74
2023/10/26 05:42:36;;;;;;;17.60;9.95;;;6.80;99.90;;;;;;4997696;28;92031;-75
2023/10/26 05:45:02;;;;;;;14.90;9.90;;;6.80;99.90;;;;;;4997828;28;91569;-73
2023/10/26 05:47:28;;;;;;;17.00;10.20;;;6.80;99.90;;;;;;4978622;28;91134;-73
2023/10/26 05:49:55;;;;;;;14.25;9.23;;;6.70;99.90;;;;;;5009969;28;88721;-72
2023/10/26 05:52:20;;;;;;;14.63;9.45;;;6.70;99.90;;;;;;4995163;28;90693;-73
2023/10/26 05:54:46;;;;;;;17.67;9.85;;;6.70;99.90;;;;;;5014327;28;87573;-77
2023/10/26 05:57:12;;;;;;;16.48;10.27;;;6.60;99.90;;;;;;4997268;28;91182;-75
2023/10/26 05:59:38;;;;;;;15.50;9.70;;;6.60;99.90;;;;;;5013161;28;88692;-73
2023/10/26 06:02:04;;;;;;;17.30;10.45;;;6.60;99.90;;;;;;5001025;28;90471;-72
2023/10/26 06:04:29;;;;;;;17.15;9.48;;;6.50;99.90;;;;;;5011368;28;88414;-72
2023/10/26 06:06:55;;;;;;;24.63;10.38;;;6.50;99.90;;;;;;4993623;28;91991;-72
2023/10/26 06:09:21;;;;;;;22.95;11.18;;;6.50;99.90;;;;;;4994995;28;87879;-73
2023/10/26 06:11:47;;;;;;;19.15;10.60;;;6.40;99.90;;;;;;5009058;28;87883;-73
2023/10/26 06:14:12;;;;;;;17.20;10.60;;;6.40;99.90;;;;;;5011046;28;88402;-73
2023/10/26 06:16:38;;;;;;;19.52;10.30;;;6.40;99.90;;;;;;5010431;28;87860;-75
2023/10/26 06:19:03;;;;;;;40.72;10.48;;;6.40;99.90;;;;;;4995731;28;88246;-73
2023/10/26 06:21:29;;;;;;;19.63;10.38;;;6.40;99.90;;;;;;5010771;28;88370;-73
2023/10/26 06:23:55;;;;;;;16.65;8.57;;;6.30;99.90;;;;;;4988659;28;92074;-74
2023/10/26 06:26:21;;;;;;;14.75;8.82;;;6.30;99.90;;;;;;4991572;28;92330;-77
2023/10/26 06:28:49;;;;;;;15.82;9.70;;;6.20;99.90;;;;;;4996024;28;87735;-76
2023/10/26 06:31:15;;;;;;;26.13;8.95;;;6.20;99.90;;;;;;5000961;28;90489;-74
2023/10/26 06:33:41;;;;;;;20.83;9.98;;;6.30;99.90;;;;;;5005659;28;91116;-75
2023/10/26 06:36:08;;;;;;;19.08;8.68;;;6.20;99.90;;;;;;5002643;28;91321;-75
2023/10/26 06:38:34;;;;;;;30.92;12.02;;;6.20;99.90;;;;;;5003957;28;87482;-73
2023/10/26 06:41:00;;;;;;;33.58;12.77;;;6.20;99.90;;;;;;5004146;28;90387;-74
2023/10/26 06:43:26;;;;;;;31.17;13.07;;;6.20;99.90;;;;;;5003055;28;91572;-77
2023/10/26 06:45:52;;;;;;;38.03;14.00;;;6.30;99.90;;;;;;5018633;28;88112;-74
2023/10/26 06:48:19;;;;;;;33.75;14.07;;;6.30;99.90;;;;;;5002161;28;88447;-77
2023/10/26 06:50:46;;;;;;;33.55;14.73;;;6.40;99.90;;;;;;4984141;28;87443;-75
2023/10/26 06:53:14;;;;;;;31.02;13.48;;;6.50;99.90;;;;;;5013490;28;87788;-77
2023/10/26 06:55:40;;;;;;;31.25;14.63;;;6.50;99.90;;;;;;5000565;28;92659;-76
2023/10/26 06:58:05;;;;;;;31.13;12.90;;;6.60;99.90;;;;;;5000933;28;88017;-75
2023/10/26 07:00:34;;;;;;;31.40;14.50;;;6.70;99.90;;;;;;5010258;28;87489;-75
2023/10/26 07:03:00;;;;;;;39.97;14.65;;;6.70;99.90;;;;;;5009467;28;88630;-74
2023/10/26 07:05:26;;;;;;;37.83;14.73;;;6.80;99.90;;;;;;5011708;28;87856;-74
2023/10/26 07:07:52;;;;;;;64.57;14.15;;;6.90;99.90;;;;;;5010014;28;87944;-76
2023/10/26 07:10:19;;;;;;;51.83;14.18;;;7.00;99.90;;;;;;5010380;28;87932;-78
2023/10/26 07:12:49;;;;;;;80.78;15.88;;;7.00;99.90;;;;;;5009700;28;89440;-75
2023/10/26 07:15:14;;;;;;;39.70;14.40;;;7.10;99.90;;;;;;5000232;28;92404;-74
2023/10/26 07:17:40;;;;;;;35.55;13.77;;;7.20;99.90;;;;;;4999844;28;87257;-76
2023/10/26 07:20:12;;;;;;;39.72;15.68;;;7.20;99.90;;;;;;5013938;28;87883;-76
2023/10/26 07:22:39;;;;;;;50.67;15.50;;;7.30;99.90;;;;;;5000858;28;91674;-76
2023/10/26 07:25:05;;;;;;;44.67;14.93;;;7.40;99.90;;;;;;5002304;28;91053;-74
2023/10/26 07:27:31;;;;;;;34.83;14.38;;;7.50;99.90;;;;;;4989745;28;87636;-74
2023/10/26 07:29:59;;;;;;;133.90;17.60;;;7.50;99.90;;;;;;5006284;28;90258;-77
2023/10/26 07:32:25;;;;;;;42.10;14.13;;;7.60;99.90;;;;;;5004800;28;91847;-77
2023/10/26 07:34:58;;;;;;;47.58;14.02;;;7.70;99.90;;;;;;5000964;28;90736;-78
2023/10/26 07:37:24;;;;;;;99.13;16.55;;;7.80;99.90;;;;;;4998078;28;88787;-76
2023/10/26 07:39:49;;;;;;;90.03;14.93;;;7.80;99.90;;;;;;5002498;27;89921;-76
2023/10/26 07:42:15;;;;;;;119.88;17.33;;;7.90;99.90;;;;;;4983910;28;90113;-76
2023/10/26 07:44:41;;;;;;;64.00;13.10;;;8.00;99.90;;;;;;4996087;28;91096;-76
2023/10/26 07:47:08;;;;;;;45.92;13.95;;;8.00;99.90;;;;;;4994724;28;88234;-74
2023/10/26 07:49:34;;;;;;;39.25;13.30;;;8.00;99.90;;;;;;4995280;28;90289;-75
2023/10/26 07:51:59;;;;;;;33.58;12.93;;;8.10;99.90;;;;;;4997197;28;90640;-75
2023/10/26 07:54:25;;;;;;;53.03;13.52;;;8.20;99.90;;;;;;4990771;28;90673;-76
2023/10/26 07:56:51;;;;;;;75.32;14.88;;;8.20;99.90;;;;;;4995387;28;87807;-76
2023/10/26 07:59:17;;;;;;;39.22;12.98;;;8.30;99.90;;;;;;5014050;28;87790;-75
2023/10/26 08:01:43;;;;;;;34.60;11.90;;;8.40;99.90;;;;;;5012308;28;88732;-75
2023/10/26 08:04:08;;;;;;;32.88;12.35;;;8.40;99.90;;;;;;4996236;28;91743;-75
2023/10/26 08:06:34;;;;;;;41.85;13.38;;;8.50;99.90;;;;;;4994811;28;87840;-75
2023/10/26 08:09:00;;;;;;;52.63;13.98;;;8.60;99.90;;;;;;4996355;28;91139;-75
2023/10/26 08:11:25;;;;;;;35.15;12.63;;;8.70;99.90;;;;;;4995785;28;90717;-74
2023/10/26 08:13:51;;;;;;;32.65;12.55;;;8.70;99.90;;;;;;4996631;28;92288;-76
2023/10/26 08:16:17;;;;;;;58.05;14.02;;;8.80;99.90;;;;;;5001501;28;87917;-76
2023/10/26 08:18:43;;;;;;;35.40;12.40;;;8.90;99.90;;;;;;4999219;28;89292;-75
2023/10/26 08:21:09;;;;;;;36.22;12.13;;;8.90;99.90;;;;;;4994377;28;91243;-77
2023/10/26 08:23:35;;;;;;;41.10;13.90;;;9.00;99.90;;;;;;4995202;28;91594;-76
2023/10/26 08:26:10;;;;;;;47.67;12.55;;;9.10;99.90;;;;;;4993680;28;88801;-76
2023/10/26 08:28:37;;;;;;;67.38;14.32;;;9.20;99.90;;;;;;4989115;28;88890;-76
2023/10/26 08:31:03;;;;;;;44.15;13.80;;;9.30;99.90;;;;;;5008467;28;88768;-77
2023/10/26 08:33:30;;;;;;;46.67;14.18;;;9.30;99.90;;;;;;4988340;28;91476;-75
2023/10/26 08:35:57;;;;;;;43.58;14.48;;;9.40;99.90;;;;;;4995581;28;88081;-75
2023/10/26 08:38:23;;;;;;;43.90;14.07;;;9.50;99.90;;;;;;5006462;28;87890;-75
2023/10/26 08:40:54;;;;;;;39.20;14.55;;;9.60;99.90;;;;;;5009317;28;87345;-76
2023/10/26 08:43:21;;;;;;;38.28;13.70;;;9.70;99.90;;;;;;5009464;28;88937;-75
2023/10/26 08:45:48;;;;;;;37.75;13.63;;;9.80;99.90;;;;;;5010414;28;87865;-75
2023/10/26 08:48:18;;;;;;;34.15;13.48;;;9.90;99.90;;;;;;4994780;28;90392;-75
2023/10/26 08:50:48;;;;;;;47.35;15.50;;;9.90;99.90;;;;;;4998814;28;92692;-75
2023/10/26 08:53:14;;;;;;;36.10;13.73;;;10.00;99.90;;;;;;4995724;28;92629;-75
2023/10/26 08:55:42;;;;;;;31.67;13.65;;;10.10;99.90;;;;;;5012400;28;87200;-75
2023/10/26 08:58:08;;;;;;;41.90;14.85;;;10.10;99.90;;;;;;4993907;28;89677;-75
2023/10/26 09:00:38;;;;;;;42.58;14.82;;;10.10;99.90;;;;;;5013368;28;89095;-75
2023/10/26 09:03:04;;;;;;;35.28;14.65;;;10.20;99.90;;;;;;4989096;28;90608;-75
2023/10/26 09:05:30;;;;;;;32.97;14.48;;;10.20;99.90;;;;;;4994128;28;88837;-75
2023/10/26 09:07:55;;;;;;;35.38;15.10;;;10.30;99.90;;;;;;4994033;28;89204;-76
2023/10/26 09:10:32;;;;;;;31.95;14.18;;;10.40;99.90;;;;;;4992625;28;90527;-75
2023/10/26 09:13:04;;;;;;;32.75;14.25;;;10.50;99.90;;;;;;4991124;28;91924;-75
2023/10/26 09:15:49;;;;;;;33.60;14.63;;;10.60;99.90;;;;;;5006651;28;89192;-74
2023/10/26 09:18:17;;;;;;;29.10;14.30;;;10.60;99.90;;;;;;5010416;28;89045;-75
2023/10/26 09:21:03;;;;;;;27.98;13.85;;;10.70;99.90;;;;;;5004562;28;87884;-75
2023/10/26 09:23:33;;;;;;;29.95;14.68;;;10.70;99.90;;;;;;4993269;28;91233;-75
2023/10/26 09:26:00;;;;;;;31.77;14.57;;;10.70;99.90;;;;;;4971850;28;91220;-76
2023/10/26 09:28:27;;;;;;;31.80;14.55;;;10.80;99.90;;;;;;4985190;28;90439;-76
2023/10/26 09:30:59;;;;;;;30.60;14.85;;;10.80;99.90;;;;;;4988041;28;91252;-75
2023/10/26 09:33:26;;;;;;;30.27;14.70;;;10.90;99.90;;;;;;5006493;28;91516;-75
2023/10/26 09:35:56;;;;;;;33.17;15.27;;;10.90;99.90;;;;;;4999068;28;87846;-75
2023/10/26 09:38:41;;;;;;;31.25;15.55;;;10.90;99.90;;;;;;4989545;28;88982;-76
2023/10/26 09:41:18;;;;;;;30.65;15.77;;;11.00;99.90;;;;;;4986994;28;97200;-76
2023/10/26 09:43:44;;;;;;;31.02;14.98;;;11.00;99.90;;;;;;5000267;28;89642;-77
2023/10/26 09:46:14;;;;;;;37.13;17.23;;;11.00;99.90;;;;;;4991259;28;87695;-76
2023/10/26 09:48:40;;;;;;;34.78;15.90;;;11.10;99.90;;;;;;4989522;28;90425;-77
2023/10/26 09:51:10;;;;;;;32.60;16.30;;;11.10;99.90;;;;;;4986244;28;91581;-77
2023/10/26 09:53:39;;;;;;;36.28;17.00;;;11.20;99.90;;;;;;4988959;28;90430;-77
2023/10/26 09:56:06;;;;;;;35.05;17.30;;;11.40;99.90;;;;;;4994912;28;87500;-77
2023/10/26 09:58:43;;;;;;;30.90;16.20;;;11.50;99.90;;;;;;4987040;28;89176;-77
2023/10/26 10:01:34;;;;;;;30.88;15.88;;;11.60;99.90;;;;;;4989172;28;92112;-77
2023/10/26 10:04:00;;;;;;;34.63;15.77;;;11.70;99.90;;;;;;5002567;28;89816;-77
2023/10/26 10:06:44;;;;;;;31.85;17.02;;;11.80;99.90;;;;;;5004439;28;89150;-77
2023/10/26 10:09:13;;;;;;;28.75;15.32;;;11.80;99.90;;;;;;5006945;28;90613;-78
2023/10/26 10:11:39;;;;;;;29.70;15.80;;;11.90;99.90;;;;;;5004016;28;88312;-77
2023/10/26 10:14:05;;;;;;;29.00;16.30;;;11.90;99.90;;;;;;4989009;28;91134;-77
2023/10/26 10:16:36;;;;;;;31.20;16.27;;;12.00;99.90;;;;;;4990252;28;87976;-77
2023/10/26 10:19:19;;;;;;;35.30;16.48;;;12.00;99.90;;;;;;4983265;28;89785;-77
2023/10/26 10:21:46;;;;;;;33.20;17.25;;;12.00;99.90;;;;;;4987794;28;92166;-77
2023/10/26 10:24:44;;;;;;;29.50;15.98;;;12.00;99.90;;;;;;5007755;28;87684;-78
2023/10/26 10:27:11;;;;;;;28.60;16.63;;;12.10;99.90;;;;;;4984176;28;88392;-78
2023/10/26 10:29:39;;;;;;;31.15;17.10;;;12.10;99.90;;;;;;4968315;28;90359;-77
2023/10/26 10:32:08;;;;;;;32.85;16.92;;;12.20;99.90;;;;;;4973353;28;92671;-77
2023/10/26 10:34:45;;;;;;;31.13;17.02;;;12.30;99.90;;;;;;4978806;28;92553;-77
2023/10/26 10:37:21;;;;;;;29.58;16.35;;;12.40;99.90;;;;;;4978687;28;87845;-77
2023/10/26 10:40:13;;;;;;;33.72;17.27;;;12.50;99.90;;;;;;4981234;28;90366;-77
2023/10/26 10:42:41;;;;;;;30.70;16.70;;;12.70;99.90;;;;;;4991252;28;91415;-78
2023/10/26 10:45:13;;;;;;;35.78;17.98;;;12.80;99.90;;;;;;4989089;28;90459;-77
2023/10/26 10:47:43;;;;;;;30.50;16.98;;;12.80;99.90;;;;;;4992356;28;87846;-77
2023/10/26 10:50:26;;;;;;;29.70;16.33;;;13.00;99.90;;;;;;4995568;28;90435;-77
2023/10/26 10:52:56;;;;;;;31.83;17.40;;;13.10;99.90;;;;;;4977192;28;90882;-77
2023/10/26 10:55:30;;;;;;;30.45;17.40;;;13.20;99.90;;;;;;4953898;28;91496;-77
2023/10/26 10:58:00;;;;;;;27.75;15.98;;;13.40;99.90;;;;;;4960277;28;88371;-76
2023/10/26 11:00:45;;;;;;;31.77;17.52;;;13.40;99.90;;;;;;4976211;28;90828;-77
2023/10/26 11:03:23;;;;;;;26.90;15.57;;;13.50;99.90;;;;;;5003082;28;88204;-76
2023/10/26 11:05:49;;;;;;;24.02;14.77;;;13.70;99.90;;;;;;4990016;28;90823;-76
2023/10/26 11:08:15;;;;;;;23.48;15.65;;;13.70;99.90;;;;;;4992010;28;88016;-76
2023/10/26 11:10:48;;;;;;;23.98;13.95;;;13.90;99.90;;;;;;4989993;28;87379;-74
2023/10/26 11:13:19;;;;;;;20.35;12.85;;;13.90;99.90;;;;;;4976496;28;92621;-75
2023/10/26 11:15:45;;;;;;;20.65;11.52;;;14.00;99.90;;;;;;4984783;28;93544;-74
2023/10/26 11:18:10;;;;;;;21.13;12.55;;;14.00;99.90;;;;;;4969025;28;88285;-75
2023/10/26 11:20:46;;;;;;;19.92;10.27;;;14.10;99.90;;;;;;4972662;28;90853;-77
2023/10/26 11:23:14;;;;;;;14.40;9.32;;;14.10;99.90;;;;;;4988588;28;88781;-77
2023/10/26 11:25:46;;;;;;;17.70;8.55;;;14.20;99.90;;;;;;4975292;28;90943;-77
2023/10/26 11:28:11;;;;;;;10.57;7.00;;;14.40;99.90;;;;;;4991938;28;87890;-77
2023/10/26 11:30:51;;;;;;;14.05;6.95;;;14.50;99.90;;;;;;4996356;28;88239;-76
2023/10/26 11:33:34;;;;;;;11.15;6.13;;;14.70;99.90;;;;;;4991341;28;91360;-77
2023/10/26 11:36:09;;;;;;;11.55;5.70;;;14.80;99.90;;;;;;4998527;28;91042;-75
2023/10/26 11:38:35;;;;;;;13.95;5.90;;;14.90;99.90;;;;;;4978530;28;88083;-76
2023/10/26 11:41:01;;;;;;;8.63;4.95;;;15.10;99.90;;;;;;4983718;28;89997;-76
2023/10/26 11:43:31;;;;;;;11.45;4.68;;;15.10;99.90;;;;;;4972552;28;91679;-76
2023/10/26 11:45:56;;;;;;;9.07;4.90;;;15.20;99.90;;;;;;4975752;28;89384;-76
2023/10/26 11:48:31;;;;;;;8.25;3.90;;;15.30;99.90;;;;;;4990722;28;88831;-76
2023/10/26 12:21:17;;;;;;;2.80;2.35;;;15.30;99.90;;;;;;5030957;27;86399;-75
2023/10/26 12:23:43;;;;;;;2.88;2.38;;;15.20;99.90;;;;;;4997383;27;86888;-75
2023/10/26 12:26:11;;;;;;;4.85;2.22;;;15.00;99.90;;;;;;5000125;28;86491;-75
2023/10/26 12:28:37;;;;;;;3.75;2.60;;;14.90;99.90;;;;;;4997781;27;86236;-75
2023/10/26 12:31:03;;;;;;;3.75;2.15;;;14.80;99.90;;;;;;4999279;28;89679;-74
2023/10/26 12:33:28;;;;;;;3.75;1.98;;;14.70;99.90;;;;;;4990417;28;86625;-74
2023/10/26 12:35:54;;;;;;;4.32;1.88;;;14.60;99.90;;;;;;4977770;28;86993;-75
2023/10/26 12:38:21;;;;;;;2.90;1.95;;;14.50;99.90;;;;;;4980601;28;88359;-75
2023/10/26 12:40:48;;;;;;;2.88;1.77;;;14.40;99.90;;;;;;4997703;28;89998;-74
2023/10/26 12:43:13;;;;;;;3.92;2.25;;;14.40;99.90;;;;;;4998332;28;86983;-74
2023/10/26 12:45:39;;;;;;;2.50;1.30;;;14.40;99.90;;;;;;4997343;28;86641;-75
2023/10/26 12:48:05;;;;;;;2.90;1.08;;;14.20;99.90;;;;;;4999343;27;87492;-75
2023/10/26 12:50:30;;;;;;;3.92;1.00;;;13.90;99.90;;;;;;4998425;27;89647;-73
2023/10/26 12:52:56;;;;;;;1.80;0.95;;;13.70;99.90;;;;;;4998773;28;87100;-74
2023/10/26 12:55:24;;;;;;;3.22;1.27;;;13.50;99.90;;;;;;4997809;27;87469;-75
2023/10/26 12:57:51;;;;;;;3.28;1.25;;;13.30;99.90;;;;;;4995432;28;90664;-74
2023/10/26 13:00:17;;;;;;;2.17;1.17;;;13.20;99.90;;;;;;4999938;27;87070;-74
2023/10/26 13:02:43;;;;;;;5.13;0.80;;;13.10;99.90;;;;;;4999562;27;86585;-74
2023/10/26 13:05:09;;;;;;;1.73;0.60;;;13.00;99.90;;;;;;4997753;28;87005;-77
2023/10/26 13:07:35;;;;;;;0.60;0.40;;;12.90;99.90;;;;;;4997240;28;90223;-74
2023/10/26 13:10:02;;;;;;;1.05;0.43;;;12.80;99.90;;;;;;4997176;28;90200;-74